Time;durP1;ratioP1;P1;durP2;ratioP2;P2;SDS_P1;SDS_P2;PMS_P1;PMS_P2;Temp;Humidity;BMP_temperature;BMP_pressure;BME280_temperature;BME280_humidity;BME280_pressure;Samples;Min_cycle;Max_cycle;Signal;HPM_P1;HPM_P2
2022/12/08 00:01:32;;;;;;;6.57;5.57;;;;;;;;;;4880048;29;20705;-89
2022/12/08 00:03:59;;;;;;;5.97;5.37;;;;;;;;;;4879275;29;20221;-90
2022/12/08 00:09:22;;;;;;;5.67;5.00;;;;;;;;;;4895434;29;20249;-90
2022/12/08 00:11:52;;;;;;;6.30;5.60;;;;;;;;;;4878932;29;20230;-89
2022/12/08 00:14:18;;;;;;;7.37;5.30;;;;;;;;;;4878889;29;20269;-89
2022/12/08 00:16:44;;;;;;;6.23;5.20;;;;;;;;;;4879101;29;20183;-89
2022/12/08 00:19:10;;;;;;;5.57;5.03;;;;;;;;;;4880335;29;20199;-89
2022/12/08 00:21:37;;;;;;;6.77;5.50;;;;;;;;;;4879878;29;20202;-90
2022/12/08 00:24:03;;;;;;;8.07;6.43;;;;;;;;;;4879491;29;20243;-90
2022/12/08 00:26:29;;;;;;;6.73;5.60;;;;;;;;;;4879092;29;20183;-90
2022/12/08 00:28:55;;;;;;;6.00;5.40;;;;;;;;;;4879222;29;20280;-91
2022/12/08 00:31:21;;;;;;;6.57;5.37;;;;;;;;;;4879764;29;20281;-90
2022/12/08 00:33:47;;;;;;;6.93;5.57;;;;;;;;;;4895437;29;20201;-90
2022/12/08 00:36:14;;;;;;;7.57;6.00;;;;;;;;;;4879147;29;20190;-90
2022/12/08 00:38:40;;;;;;;7.80;5.93;;;;;;;;;;4878504;29;20190;-89
2022/12/08 00:41:08;;;;;;;6.60;5.63;;;;;;;;;;4879928;29;20670;-89
2022/12/08 00:43:34;;;;;;;7.13;5.63;;;;;;;;;;4879440;29;20306;-89
2022/12/08 00:46:00;;;;;;;6.63;4.80;;;;;;;;;;4877634;29;20195;-90
2022/12/08 00:48:26;;;;;;;6.80;6.10;;;;;;;;;;4877884;29;20549;-89
2022/12/08 00:50:52;;;;;;;7.37;6.53;;;;;;;;;;4880045;29;20230;-89
2022/12/08 00:53:18;;;;;;;8.63;5.80;;;;;;;;;;4874511;29;20254;-89
2022/12/08 00:55:44;;;;;;;6.33;5.40;;;;;;;;;;4876643;29;20193;-89
2022/12/08 00:58:10;;;;;;;7.47;5.03;;;;;;;;;;4878554;29;20186;-90
2022/12/08 01:00:36;;;;;;;6.03;5.43;;;;;;;;;;4877085;29;20247;-89
2022/12/08 01:03:03;;;;;;;5.87;5.27;;;;;;;;;;4887976;29;20242;-89
2022/12/08 01:05:29;;;;;;;6.97;5.93;;;;;;;;;;4874664;29;20207;-89
2022/12/08 01:07:55;;;;;;;7.10;5.70;;;;;;;;;;4878697;29;20213;-90
2022/12/08 01:10:21;;;;;;;8.37;6.07;;;;;;;;;;4876060;29;20178;-90
2022/12/08 01:12:47;;;;;;;6.27;5.23;;;;;;;;;;4877512;29;20204;-89
2022/12/08 01:15:13;;;;;;;6.73;5.57;;;;;;;;;;4865010;29;20204;-90
2022/12/08 01:17:39;;;;;;;6.03;5.43;;;;;;;;;;4877404;29;20195;-90
2022/12/08 01:20:05;;;;;;;8.57;5.80;;;;;;;;;;4879253;29;20668;-91
2022/12/08 01:22:33;;;;;;;7.83;6.80;;;;;;;;;;4867196;29;20182;-90
2022/12/08 01:24:59;;;;;;;10.67;5.57;;;;;;;;;;4887423;29;20190;-90
2022/12/08 01:27:25;;;;;;;6.37;5.47;;;;;;;;;;4878091;29;20289;-90
2022/12/08 01:29:51;;;;;;;5.70;5.17;;;;;;;;;;4879219;29;20198;-90
2022/12/08 01:32:18;;;;;;;9.57;5.90;;;;;;;;;;4872720;29;20270;-89
2022/12/08 01:34:44;;;;;;;7.40;5.73;;;;;;;;;;4889590;29;20210;-90
2022/12/08 01:37:11;;;;;;;5.97;4.93;;;;;;;;;;4871808;29;20191;-89
2022/12/08 01:39:39;;;;;;;6.83;5.90;;;;;;;;;;4883654;29;20187;-90
2022/12/08 01:42:05;;;;;;;9.90;6.00;;;;;;;;;;4882036;29;20210;-91
2022/12/08 01:44:37;;;;;;;9.17;6.57;;;;;;;;;;4883784;29;20491;-91
2022/12/08 01:47:03;;;;;;;7.83;5.90;;;;;;;;;;4883432;29;20266;-90
2022/12/08 01:49:31;;;;;;;7.70;6.00;;;;;;;;;;4897900;29;20186;-91
2022/12/08 01:52:18;;;;;;;6.83;6.17;;;;;;;;;;4878837;29;20210;-89
2022/12/08 01:54:50;;;;;;;7.73;5.83;;;;;;;;;;4869035;29;20746;-89
2022/12/08 01:57:49;;;;;;;9.60;6.40;;;;;;;;;;4876616;29;20187;-90
2022/12/08 02:00:16;;;;;;;9.43;6.20;;;;;;;;;;4849673;29;20206;-90
2022/12/08 02:02:47;;;;;;;9.87;6.40;;;;;;;;;;4878412;29;20662;-90
2022/12/08 02:05:13;;;;;;;7.17;6.17;;;;;;;;;;4876779;29;20403;-90
2022/12/08 02:07:40;;;;;;;7.53;6.60;;;;;;;;;;4878618;29;20213;-89
2022/12/08 02:10:06;;;;;;;9.27;7.00;;;;;;;;;;4880008;29;20186;-90
2022/12/08 02:12:32;;;;;;;8.60;6.53;;;;;;;;;;4878632;29;20550;-89
2022/12/08 02:14:59;;;;;;;8.17;6.77;;;;;;;;;;4879612;29;20183;-89
2022/12/08 02:17:28;;;;;;;8.53;7.03;;;;;;;;;;4877392;29;20194;-89
2022/12/08 02:20:03;;;;;;;8.77;6.37;;;;;;;;;;4873386;29;20722;-88
2022/12/08 02:22:32;;;;;;;9.90;7.33;;;;;;;;;;4887352;29;20547;-90
2022/12/08 02:25:04;;;;;;;9.23;7.10;;;;;;;;;;4875033;29;20234;-90
2022/12/08 02:27:54;;;;;;;8.43;7.07;;;;;;;;;;4884411;29;20207;-89
2022/12/08 02:30:20;;;;;;;8.43;7.07;;;;;;;;;;4903507;29;20197;-89
2022/12/08 02:32:54;;;;;;;8.47;6.70;;;;;;;;;;4901918;29;20179;-90
2022/12/08 02:35:33;;;;;;;9.37;6.83;;;;;;;;;;4891208;29;20214;-89
2022/12/08 02:38:10;;;;;;;9.10;7.10;;;;;;;;;;4889086;29;20182;-89
2022/12/08 02:40:48;;;;;;;9.07;7.57;;;;;;;;;;4891975;29;20687;-90
2022/12/08 02:43:17;;;;;;;9.37;7.60;;;;;;;;;;4890991;29;20206;-89
2022/12/08 02:45:54;;;;;;;8.27;7.37;;;;;;;;;;4889127;29;20193;-89
2022/12/08 02:48:20;;;;;;;10.13;7.07;;;;;;;;;;4900306;29;20496;-89
2022/12/08 02:50:46;;;;;;;10.97;7.73;;;;;;;;;;4887566;29;20719;-90
2022/12/08 02:53:12;;;;;;;11.93;7.97;;;;;;;;;;4886851;29;20254;-90
2022/12/08 02:55:54;;;;;;;10.00;8.47;;;;;;;;;;4886736;29;20409;-90
2022/12/08 02:58:23;;;;;;;9.80;7.67;;;;;;;;;;4882701;29;20202;-89
2022/12/08 03:01:04;;;;;;;10.47;8.10;;;;;;;;;;4885304;29;20183;-89
2022/12/08 03:03:39;;;;;;;10.00;8.40;;;;;;;;;;4883021;29;20194;-88
2022/12/08 03:06:08;;;;;;;11.17;8.90;;;;;;;;;;4881649;29;20181;-90
2022/12/08 03:08:41;;;;;;;10.40;7.33;;;;;;;;;;4898312;29;20253;-89
2022/12/08 03:11:07;;;;;;;12.87;8.70;;;;;;;;;;4883012;29;20183;-89
2022/12/08 03:13:39;;;;;;;10.00;7.60;;;;;;;;;;4878805;29;20197;-90
2022/12/08 03:16:07;;;;;;;10.07;8.17;;;;;;;;;;4883056;29;20179;-89
2022/12/08 03:18:36;;;;;;;9.50;7.70;;;;;;;;;;4896567;29;20646;-89
2022/12/08 03:21:02;;;;;;;8.53;7.53;;;;;;;;;;4880974;29;20179;-89
2022/12/08 03:23:29;;;;;;;11.27;7.27;;;;;;;;;;4879534;29;20253;-90
2022/12/08 03:26:11;;;;;;;9.13;7.23;;;;;;;;;;4881194;29;20185;-89
2022/12/08 03:28:37;;;;;;;8.73;7.53;;;;;;;;;;4894057;29;20927;-89
2022/12/08 03:31:05;;;;;;;10.17;8.37;;;;;;;;;;4879668;29;20199;-89
2022/12/08 03:33:33;;;;;;;10.57;7.70;;;;;;;;;;4880230;29;20285;-89
2022/12/08 03:36:00;;;;;;;9.60;8.20;;;;;;;;;;4879807;29;20697;-89
2022/12/08 03:38:33;;;;;;;13.90;8.47;;;;;;;;;;4874554;29;20802;-89
2022/12/08 03:41:17;;;;;;;12.53;7.37;;;;;;;;;;4880518;29;20606;-89
2022/12/08 03:43:43;;;;;;;9.97;7.73;;;;;;;;;;4877774;29;20214;-89
2022/12/08 03:46:09;;;;;;;10.70;8.10;;;;;;;;;;4881850;29;20631;-89
2022/12/08 03:48:35;;;;;;;10.37;8.10;;;;;;;;;;4896911;29;20222;-89
2022/12/08 03:51:01;;;;;;;10.53;7.77;;;;;;;;;;4881690;29;20786;-89
2022/12/08 03:53:27;;;;;;;10.37;7.63;;;;;;;;;;4877493;29;20186;-89
2022/12/08 03:55:53;;;;;;;10.73;8.33;;;;;;;;;;4876932;29;20878;-90
2022/12/08 03:58:20;;;;;;;9.87;8.07;;;;;;;;;;4879259;29;20183;-90
2022/12/08 04:00:46;;;;;;;9.83;8.13;;;;;;;;;;4879135;29;20206;-88
2022/12/08 04:03:12;;;;;;;12.43;8.87;;;;;;;;;;4879603;29;20666;-89
2022/12/08 04:05:38;;;;;;;8.13;6.97;;;;;;;;;;4880200;29;20625;-90
2022/12/08 04:08:04;;;;;;;9.43;7.87;;;;;;;;;;4878111;29;20214;-91
2022/12/08 04:10:30;;;;;;;9.40;7.87;;;;;;;;;;4878594;29;20187;-90
2022/12/08 04:12:57;;;;;;;10.40;7.70;;;;;;;;;;4895569;29;20178;-89
2022/12/08 04:15:23;;;;;;;8.77;7.63;;;;;;;;;;4881689;29;20177;-90
2022/12/08 04:17:49;;;;;;;8.37;7.13;;;;;;;;;;4879130;29;20266;-90
2022/12/08 04:20:15;;;;;;;8.80;7.40;;;;;;;;;;4880621;29;20254;-90
2022/12/08 04:22:41;;;;;;;8.57;7.10;;;;;;;;;;4878421;29;20320;-90
2022/12/08 04:25:07;;;;;;;9.33;7.30;;;;;;;;;;4868630;29;20195;-90
2022/12/08 04:27:33;;;;;;;8.53;6.43;;;;;;;;;;4878437;29;20210;-90
2022/12/08 04:29:59;;;;;;;9.37;6.93;;;;;;;;;;4878789;29;20736;-90
2022/12/08 04:32:25;;;;;;;8.97;7.03;;;;;;;;;;4892769;29;20273;-90
2022/12/08 04:34:51;;;;;;;10.37;7.50;;;;;;;;;;4880694;29;20182;-90
2022/12/08 04:37:17;;;;;;;8.93;6.97;;;;;;;;;;4895541;29;20753;-89
2022/12/08 04:39:43;;;;;;;9.13;7.17;;;;;;;;;;4879402;29;20504;-90
2022/12/08 04:42:09;;;;;;;9.00;6.50;;;;;;;;;;4894871;29;20190;-89
2022/12/08 04:44:35;;;;;;;8.67;6.57;;;;;;;;;;4880481;29;20190;-89
2022/12/08 04:47:01;;;;;;;9.03;6.63;;;;;;;;;;4896212;29;20218;-89
2022/12/08 04:49:27;;;;;;;10.23;7.50;;;;;;;;;;4879796;29;20194;-90
2022/12/08 04:51:53;;;;;;;9.87;7.23;;;;;;;;;;4880556;29;20237;-89
2022/12/08 04:54:19;;;;;;;9.80;6.23;;;;;;;;;;4878352;29;20191;-90
2022/12/08 04:56:45;;;;;;;10.47;7.00;;;;;;;;;;4878629;29;20182;-89
2022/12/08 04:59:11;;;;;;;9.00;6.77;;;;;;;;;;4879054;29;20195;-90
2022/12/08 05:01:37;;;;;;;7.43;6.30;;;;;;;;;;4879731;29;20404;-90
2022/12/08 05:04:03;;;;;;;9.27;7.23;;;;;;;;;;4876718;29;20289;-90
2022/12/08 05:06:29;;;;;;;8.57;6.90;;;;;;;;;;4878178;29;20194;-90
2022/12/08 05:08:55;;;;;;;9.30;7.20;;;;;;;;;;4895086;29;20202;-90
2022/12/08 05:11:21;;;;;;;8.13;6.77;;;;;;;;;;4879175;29;20210;-89
2022/12/08 05:13:47;;;;;;;7.67;5.77;;;;;;;;;;4879147;29;20186;-89
2022/12/08 05:16:15;;;;;;;7.97;6.40;;;;;;;;;;4879130;29;20185;-90
2022/12/08 05:18:41;;;;;;;8.07;6.63;;;;;;;;;;4878687;29;20347;-90
2022/12/08 05:21:08;;;;;;;7.37;6.37;;;;;;;;;;4879139;29;20182;-90
2022/12/08 05:23:34;;;;;;;8.93;6.90;;;;;;;;;;4886220;29;20198;-89
2022/12/08 05:42:50;;;;;;;8.17;6.46;;;;;;;;;;4772261;27;8213777;-57
2022/12/08 05:45:16;;;;;;;8.20;6.40;;;;;;;;;;5053523;28;20635;-56
2022/12/08 05:47:42;;;;;;;9.37;7.73;;;;;;;;;;5056704;28;20621;-57
2022/12/08 05:50:11;;;;;;;8.97;6.83;;;;;;;;;;5054505;28;20567;-56
2022/12/08 05:52:37;;;;;;;8.63;7.23;;;;;;;;;;5054996;28;20177;-56
2022/12/08 05:55:03;;;;;;;10.23;7.20;;;;;;;;;;5058833;28;20203;-57
2022/12/08 05:57:29;;;;;;;9.47;7.10;;;;;;;;;;5055297;28;20172;-57
2022/12/08 05:59:58;;;;;;;8.50;6.80;;;;;;;;;;5062859;28;20569;-57
2022/12/08 06:02:24;;;;;;;7.70;6.37;;;;;;;;;;5057611;28;20173;-57
2022/12/08 06:04:50;;;;;;;8.57;7.03;;;;;;;;;;5061468;28;20168;-57
2022/12/08 06:07:16;;;;;;;9.27;7.10;;;;;;;;;;5059846;28;20651;-58
2022/12/08 06:09:42;;;;;;;9.53;7.67;;;;;;;;;;5056458;28;20192;-58
2022/12/08 06:12:10;;;;;;;10.03;7.40;;;;;;;;;;5043055;28;20647;-57
2022/12/08 06:14:37;;;;;;;13.93;8.13;;;;;;;;;;5060910;28;20370;-57
2022/12/08 06:17:03;;;;;;;9.10;7.60;;;;;;;;;;5059603;28;20272;-58
2022/12/08 06:19:29;;;;;;;11.57;8.07;;;;;;;;;;5062380;28;20157;-56
2022/12/08 06:21:55;;;;;;;11.00;7.13;;;;;;;;;;5061220;28;20168;-58
2022/12/08 06:24:22;;;;;;;14.60;7.93;;;;;;;;;;5039589;28;20184;-56
2022/12/08 06:26:48;;;;;;;10.93;8.13;;;;;;;;;;5055491;28;20781;-57
2022/12/08 06:29:14;;;;;;;11.50;8.47;;;;;;;;;;5061134;28;20346;-56
2022/12/08 06:31:40;;;;;;;9.80;8.50;;;;;;;;;;5060193;28;20189;-57
2022/12/08 06:34:06;;;;;;;14.63;7.73;;;;;;;;;;5058222;28;20179;-57
2022/12/08 06:36:33;;;;;;;13.40;9.03;;;;;;;;;;5040394;28;20550;-57
2022/12/08 06:38:59;;;;;;;10.10;7.70;;;;;;;;;;5055408;28;20277;-57
2022/12/08 06:41:25;;;;;;;10.87;8.50;;;;;;;;;;5041548;28;20192;-58
2022/12/08 06:43:51;;;;;;;11.90;8.17;;;;;;;;;;5026761;28;20236;-58
2022/12/08 06:46:18;;;;;;;15.77;8.83;;;;;;;;;;5041754;28;20177;-59
2022/12/08 06:48:44;;;;;;;9.53;7.67;;;;;;;;;;5048183;28;20254;-59
2022/12/08 06:51:15;;;;;;;9.33;7.00;;;;;;;;;;5045244;28;20174;-57
2022/12/08 06:53:41;;;;;;;10.57;7.23;;;;;;;;;;5026616;28;20180;-57
2022/12/08 06:56:08;;;;;;;9.90;6.57;;;;;;;;;;5027996;28;20173;-58
2022/12/08 06:58:34;;;;;;;10.77;7.77;;;;;;;;;;5039885;28;20177;-59
2022/12/08 07:01:04;;;;;;;11.70;8.43;;;;;;;;;;5048541;28;20647;-58
2022/12/08 07:03:30;;;;;;;10.70;8.10;;;;;;;;;;5044207;28;20750;-60
2022/12/08 07:05:57;;;;;;;9.73;7.33;;;;;;;;;;5045515;28;20853;-59
2022/12/08 07:08:23;;;;;;;10.43;7.60;;;;;;;;;;5030745;28;20240;-58
2022/12/08 07:10:49;;;;;;;10.20;7.23;;;;;;;;;;5035479;28;20180;-58
2022/12/08 07:13:15;;;;;;;10.20;7.43;;;;;;;;;;5043094;28;20253;-57
2022/12/08 07:15:41;;;;;;;10.03;7.60;;;;;;;;;;5043980;28;20181;-57
2022/12/08 07:18:07;;;;;;;9.10;7.40;;;;;;;;;;5026852;28;20181;-58
2022/12/08 07:20:33;;;;;;;9.53;7.47;;;;;;;;;;5035280;28;20535;-58
2022/12/08 07:22:59;;;;;;;11.50;7.77;;;;;;;;;;5043637;28;20605;-57
2022/12/08 07:25:25;;;;;;;10.00;7.80;;;;;;;;;;5051384;28;20175;-58
2022/12/08 07:27:52;;;;;;;9.23;6.83;;;;;;;;;;5039105;28;20559;-57
2022/12/08 07:30:18;;;;;;;10.13;7.20;;;;;;;;;;5051518;28;20235;-57
2022/12/08 07:32:44;;;;;;;9.43;6.77;;;;;;;;;;5041442;28;20170;-57
2022/12/08 07:35:10;;;;;;;8.33;6.60;;;;;;;;;;5040112;28;20223;-57
2022/12/08 07:37:37;;;;;;;8.73;7.17;;;;;;;;;;5041795;28;20552;-59
2022/12/08 07:40:04;;;;;;;12.40;7.47;;;;;;;;;;5047314;28;20176;-58
2022/12/08 07:42:30;;;;;;;10.43;6.60;;;;;;;;;;5039963;28;20305;-59
2022/12/08 07:44:56;;;;;;;7.33;6.20;;;;;;;;;;5032722;28;20319;-58
2022/12/08 07:47:22;;;;;;;8.53;7.00;;;;;;;;;;5017021;28;20827;-57
2022/12/08 07:49:48;;;;;;;8.27;6.73;;;;;;;;;;5036579;28;20260;-58
2022/12/08 07:52:14;;;;;;;7.83;6.60;;;;;;;;;;5036446;28;20260;-57
2022/12/08 07:54:40;;;;;;;9.10;6.13;;;;;;;;;;5040379;28;20268;-57
2022/12/08 07:57:07;;;;;;;8.70;6.43;;;;;;;;;;5036228;28;20759;-57
2022/12/08 07:59:34;;;;;;;8.07;5.80;;;;;;;;;;5035857;28;20181;-57
2022/12/08 08:02:00;;;;;;;8.20;5.93;;;;;;;;;;5047416;28;20184;-57
2022/12/08 08:04:26;;;;;;;7.87;6.17;;;;;;;;;;5038421;28;20181;-56
2022/12/08 08:06:52;;;;;;;7.47;4.97;;;;;;;;;;5041685;28;20850;-57
2022/12/08 08:09:18;;;;;;;7.27;5.77;;;;;;;;;;5041288;28;20290;-58
2022/12/08 08:11:44;;;;;;;7.13;5.60;;;;;;;;;;5044304;28;20556;-59
2022/12/08 08:14:10;;;;;;;10.47;5.87;;;;;;;;;;5022740;28;20174;-56
2022/12/08 08:16:36;;;;;;;6.63;5.63;;;;;;;;;;5035115;28;20257;-58
2022/12/08 08:19:02;;;;;;;5.97;5.37;;;;;;;;;;5036812;28;20639;-57
2022/12/08 08:21:28;;;;;;;8.30;6.00;;;;;;;;;;5047967;28;20181;-58
2022/12/08 08:23:54;;;;;;;7.67;5.70;;;;;;;;;;5051052;28;20256;-56
2022/12/08 08:26:20;;;;;;;9.03;5.77;;;;;;;;;;5045044;28;20643;-57
2022/12/08 08:28:48;;;;;;;6.77;5.77;;;;;;;;;;5018959;28;20279;-57
2022/12/08 08:31:14;;;;;;;6.73;5.40;;;;;;;;;;5037604;28;20685;-56
2022/12/08 08:33:41;;;;;;;6.70;5.33;;;;;;;;;;5046035;28;20187;-58
2022/12/08 08:36:07;;;;;;;7.37;6.17;;;;;;;;;;5042291;28;20537;-59
2022/12/08 08:38:35;;;;;;;7.87;5.90;;;;;;;;;;5032533;28;20172;-58
2022/12/08 08:41:06;;;;;;;7.17;5.80;;;;;;;;;;5036240;28;20181;-56
2022/12/08 08:43:32;;;;;;;7.50;5.73;;;;;;;;;;5047559;28;20247;-57
2022/12/08 08:45:59;;;;;;;8.43;6.03;;;;;;;;;;5015893;28;20194;-57
2022/12/08 08:48:26;;;;;;;7.43;6.33;;;;;;;;;;5037887;28;20205;-58
2022/12/08 08:50:52;;;;;;;7.70;6.13;;;;;;;;;;5042417;28;20282;-57
2022/12/08 08:53:18;;;;;;;9.20;7.03;;;;;;;;;;5036592;28;20643;-57
2022/12/08 08:55:44;;;;;;;8.60;6.90;;;;;;;;;;5034604;28;20627;-57
2022/12/08 08:58:10;;;;;;;8.47;6.63;;;;;;;;;;5038820;28;20209;-57
2022/12/08 09:00:36;;;;;;;10.57;7.70;;;;;;;;;;5039201;28;20184;-58
2022/12/08 09:03:02;;;;;;;9.00;7.00;;;;;;;;;;5031769;28;20188;-59
2022/12/08 09:05:29;;;;;;;10.37;7.37;;;;;;;;;;5039326;28;20173;-57
2022/12/08 09:07:55;;;;;;;9.23;7.60;;;;;;;;;;5041017;28;20202;-56
2022/12/08 09:10:21;;;;;;;10.63;8.03;;;;;;;;;;5031275;28;20180;-58
2022/12/08 09:12:47;;;;;;;8.30;6.87;;;;;;;;;;5034222;28;20246;-57
2022/12/08 09:15:13;;;;;;;9.97;7.77;;;;;;;;;;5040202;28;20264;-57
2022/12/08 09:17:39;;;;;;;11.70;8.03;;;;;;;;;;5039000;28;20220;-57
2022/12/08 09:20:06;;;;;;;11.80;8.33;;;;;;;;;;5028923;28;20215;-58
2022/12/08 09:22:32;;;;;;;11.73;8.07;;;;;;;;;;5033167;28;20192;-57
2022/12/08 09:24:58;;;;;;;8.77;7.40;;;;;;;;;;5036740;28;20185;-56
2022/12/08 09:27:24;;;;;;;9.13;7.63;;;;;;;;;;5035899;28;20201;-57
2022/12/08 09:29:50;;;;;;;9.73;7.50;;;;;;;;;;5035085;28;20207;-57
2022/12/08 09:32:16;;;;;;;9.60;7.37;;;;;;;;;;5028256;28;20235;-58
2022/12/08 09:34:42;;;;;;;8.90;7.10;;;;;;;;;;5034289;28;20181;-58
2022/12/08 09:37:08;;;;;;;9.07;7.27;;;;;;;;;;5035938;28;20259;-58
2022/12/08 09:39:34;;;;;;;8.97;6.87;;;;;;;;;;5037655;28;20185;-57
2022/12/08 09:42:07;;;;;;;10.40;7.87;;;;;;;;;;5037532;28;20205;-56
2022/12/08 09:44:47;;;;;;;9.00;7.47;;;;;;;;;;5026012;28;20303;-57
2022/12/08 09:47:35;;;;;;;9.93;7.87;;;;;;;;;;5017634;28;20197;-58
2022/12/08 09:50:05;;;;;;;8.53;7.13;;;;;;;;;;5008432;28;20197;-57
2022/12/08 09:52:34;;;;;;;8.80;7.20;;;;;;;;;;5021356;28;20219;-57
2022/12/08 09:55:03;;;;;;;7.67;6.30;;;;;;;;;;5017446;28;20210;-59
2022/12/08 09:57:30;;;;;;;10.73;7.43;;;;;;;;;;5028348;28;20231;-57
2022/12/08 10:00:02;;;;;;;10.03;7.23;;;;;;;;;;5001544;28;20177;-57
2022/12/08 10:02:29;;;;;;;11.67;8.97;;;;;;;;;;5018751;28;20185;-57
2022/12/08 10:04:56;;;;;;;10.43;8.37;;;;;;;;;;5018794;28;20177;-57
2022/12/08 10:07:22;;;;;;;10.77;8.20;;;;;;;;;;5027582;28;20301;-57
2022/12/08 10:09:55;;;;;;;12.77;8.63;;;;;;;;;;5014744;28;20183;-57
2022/12/08 10:12:25;;;;;;;8.87;6.93;;;;;;;;;;5024762;28;20628;-58
2022/12/08 10:14:51;;;;;;;10.03;8.10;;;;;;;;;;5012453;28;21124;-58
2022/12/08 10:17:23;;;;;;;10.83;8.07;;;;;;;;;;5031124;28;20188;-57
2022/12/08 10:19:50;;;;;;;8.00;6.70;;;;;;;;;;5018525;28;20617;-57
2022/12/08 10:22:20;;;;;;;11.17;8.53;;;;;;;;;;5013855;28;20189;-58
2022/12/08 10:25:00;;;;;;;12.50;7.20;;;;;;;;;;5037044;28;20184;-59
2022/12/08 10:27:26;;;;;;;9.47;6.90;;;;;;;;;;5017850;28;20483;-58
2022/12/08 10:29:52;;;;;;;9.80;8.20;;;;;;;;;;5021666;28;20257;-58
2022/12/08 10:32:21;;;;;;;12.13;8.67;;;;;;;;;;5027433;28;20613;-59
2022/12/08 10:35:11;;;;;;;9.63;8.00;;;;;;;;;;5015698;28;20186;-59
2022/12/08 10:37:37;;;;;;;10.47;7.30;;;;;;;;;;5028057;28;20243;-58
2022/12/08 10:40:10;;;;;;;11.03;8.03;;;;;;;;;;5026420;28;20194;-58
2022/12/08 10:42:40;;;;;;;9.20;8.10;;;;;;;;;;5015922;28;20456;-59
2022/12/08 10:45:10;;;;;;;9.77;7.43;;;;;;;;;;5034707;28;20584;-61
2022/12/08 10:47:39;;;;;;;11.27;8.03;;;;;;;;;;5030502;28;20208;-58
2022/12/08 10:50:13;;;;;;;11.37;8.67;;;;;;;;;;5041089;28;20893;-58
2022/12/08 10:52:40;;;;;;;9.87;7.77;;;;;;;;;;5044879;28;20169;-58
2022/12/08 10:55:14;;;;;;;11.90;7.73;;;;;;;;;;5021335;28;20608;-59
2022/12/08 10:57:40;;;;;;;10.13;7.83;;;;;;;;;;5037632;28;20215;-58
2022/12/08 11:00:06;;;;;;;12.37;8.50;;;;;;;;;;5025762;28;20279;-58
2022/12/08 11:02:33;;;;;;;12.27;7.93;;;;;;;;;;5045910;28;20691;-57
2022/12/08 11:04:59;;;;;;;11.40;8.77;;;;;;;;;;5039530;28;20279;-59
2022/12/08 11:07:26;;;;;;;11.70;9.97;;;;;;;;;;5049966;28;20204;-57
2022/12/08 11:09:57;;;;;;;9.67;8.30;;;;;;;;;;5040915;28;20893;-58
2022/12/08 11:12:26;;;;;;;10.13;8.70;;;;;;;;;;5043532;28;20854;-59
2022/12/08 11:15:01;;;;;;;13.97;10.30;;;;;;;;;;5050831;28;20183;-57
2022/12/08 11:17:28;;;;;;;15.70;9.00;;;;;;;;;;5024299;28;20239;-58
2022/12/08 11:19:57;;;;;;;11.97;10.17;;;;;;;;;;5036959;28;20264;-58
2022/12/08 11:22:36;;;;;;;10.63;9.23;;;;;;;;;;5021154;28;20516;-58
2022/12/08 11:25:10;;;;;;;14.70;8.63;;;;;;;;;;5039138;28;20181;-58
2022/12/08 11:27:38;;;;;;;11.70;8.67;;;;;;;;;;5027996;28;20553;-58
2022/12/08 11:30:14;;;;;;;11.53;8.73;;;;;;;;;;5036767;28;20188;-59
2022/12/08 11:32:43;;;;;;;13.70;9.60;;;;;;;;;;5041213;28;20586;-58
2022/12/08 11:35:14;;;;;;;12.10;9.60;;;;;;;;;;5039925;28;20169;-59
2022/12/08 11:37:48;;;;;;;12.47;8.93;;;;;;;;;;5043745;28;20234;-57
2022/12/08 11:40:20;;;;;;;12.13;9.33;;;;;;;;;;5045008;28;20205;-57
2022/12/08 11:42:54;;;;;;;12.90;8.53;;;;;;;;;;5042551;28;20624;-57
2022/12/08 11:45:24;;;;;;;11.37;8.87;;;;;;;;;;5027638;28;20222;-57
2022/12/08 11:47:56;;;;;;;11.93;8.30;;;;;;;;;;5028945;28;20206;-59
2022/12/08 11:50:26;;;;;;;15.30;9.40;;;;;;;;;;5021190;28;20731;-57
2022/12/08 11:52:52;;;;;;;12.53;9.33;;;;;;;;;;5001826;28;20575;-58
2022/12/08 11:55:24;;;;;;;12.27;8.50;;;;;;;;;;5016548;28;20243;-58
2022/12/08 11:57:51;;;;;;;10.70;8.03;;;;;;;;;;5016205;28;20691;-58
2022/12/08 12:00:17;;;;;;;14.40;8.70;;;;;;;;;;5018089;28;20178;-57
2022/12/08 12:02:46;;;;;;;12.90;8.07;;;;;;;;;;5021739;28;20173;-57
2022/12/08 12:05:31;;;;;;;14.07;8.37;;;;;;;;;;5019707;28;20615;-58
2022/12/08 12:07:57;;;;;;;13.30;8.90;;;;;;;;;;5021912;28;20542;-57
2022/12/08 12:10:35;;;;;;;10.80;9.03;;;;;;;;;;5017826;28;20189;-58
2022/12/08 12:13:11;;;;;;;10.27;8.33;;;;;;;;;;5009849;28;20193;-59
2022/12/08 12:15:55;;;;;;;13.23;8.60;;;;;;;;;;5031837;28;20882;-57
2022/12/08 12:18:24;;;;;;;11.13;8.50;;;;;;;;;;5024367;28;20572;-57
2022/12/08 12:21:10;;;;;;;13.27;9.53;;;;;;;;;;5021796;28;20588;-56
2022/12/08 12:23:41;;;;;;;11.57;8.73;;;;;;;;;;5015033;28;20617;-59
2022/12/08 12:26:09;;;;;;;9.47;8.50;;;;;;;;;;5015157;28;20588;-58
2022/12/08 12:28:40;;;;;;;10.57;8.20;;;;;;;;;;5025184;28;20680;-59
2022/12/08 12:31:09;;;;;;;12.50;8.90;;;;;;;;;;5030739;28;20204;-57
2022/12/08 12:33:35;;;;;;;11.57;8.93;;;;;;;;;;5013047;28;20193;-58
2022/12/08 12:36:03;;;;;;;9.40;7.30;;;;;;;;;;5022619;28;20189;-59
2022/12/08 12:41:27;;;;;;;9.50;7.60;;;;;;;;;;5008956;28;20270;-57
2022/12/08 12:44:16;;;;;;;10.47;7.93;;;;;;;;;;5005439;28;20603;-58
2022/12/08 12:46:47;;;;;;;10.47;6.90;;;;;;;;;;5041573;28;20698;-59
2022/12/08 12:49:31;;;;;;;10.63;8.33;;;;;;;;;;5038194;28;20177;-57
2022/12/08 12:51:57;;;;;;;12.10;9.03;;;;;;;;;;5046601;28;20683;-57
2022/12/08 12:54:28;;;;;;;9.13;7.53;;;;;;;;;;5044123;28;20697;-58
2022/12/08 12:57:09;;;;;;;9.43;7.93;;;;;;;;;;5044441;28;20655;-58
2022/12/08 12:59:41;;;;;;;12.20;8.43;;;;;;;;;;5041125;28;20315;-57
2022/12/08 13:02:19;;;;;;;10.00;8.47;;;;;;;;;;5034327;28;20204;-58
2022/12/08 13:05:05;;;;;;;9.77;8.27;;;;;;;;;;5033890;28;20530;-58
2022/12/08 13:07:34;;;;;;;10.00;8.00;;;;;;;;;;5032890;28;20213;-57
2022/12/08 13:10:09;;;;;;;12.13;7.90;;;;;;;;;;5041810;28;20172;-57
2022/12/08 13:12:35;;;;;;;11.43;9.40;;;;;;;;;;5048054;28;20176;-56
2022/12/08 13:15:04;;;;;;;11.73;7.87;;;;;;;;;;5044179;28;20180;-59
2022/12/08 13:17:32;;;;;;;10.33;8.60;;;;;;;;;;5050679;28;20214;-56
2022/12/08 13:19:59;;;;;;;9.40;8.27;;;;;;;;;;5046953;28;20268;-60
2022/12/08 13:22:49;;;;;;;10.30;8.03;;;;;;;;;;5046943;28;20172;-57
2022/12/08 13:25:34;;;;;;;10.37;8.13;;;;;;;;;;5029144;28;20194;-58
2022/12/08 13:28:08;;;;;;;10.33;8.07;;;;;;;;;;5021327;28;20201;-57
2022/12/08 13:30:50;;;;;;;11.73;7.67;;;;;;;;;;5050661;28;20227;-57
2022/12/08 13:33:22;;;;;;;10.30;8.07;;;;;;;;;;5056370;28;20250;-57
2022/12/08 13:36:08;;;;;;;10.00;7.87;;;;;;;;;;5025536;28;20564;-57
2022/12/08 13:38:36;;;;;;;8.87;6.23;;;;;;;;;;5021416;28;20193;-56
2022/12/08 13:41:04;;;;;;;9.83;6.53;;;;;;;;;;5055897;28;20263;-57
2022/12/08 13:43:56;;;;;;;7.40;6.33;;;;;;;;;;5027031;28;20195;-57
2022/12/08 13:46:31;;;;;;;6.20;5.53;;;;;;;;;;4979762;28;20210;-56
2022/12/08 13:48:58;;;;;;;7.50;5.60;;;;;;;;;;5009809;28;20198;-56
2022/12/08 13:51:30;;;;;;;8.53;5.57;;;;;;;;;;5017276;28;20174;-57
2022/12/08 13:53:59;;;;;;;10.20;5.43;;;;;;;;;;5027176;28;20184;-57
2022/12/08 13:56:26;;;;;;;6.77;5.73;;;;;;;;;;5020753;28;20536;-57
2022/12/08 13:59:05;;;;;;;6.77;5.97;;;;;;;;;;5013777;28;20693;-57
2022/12/08 14:01:31;;;;;;;7.73;5.50;;;;;;;;;;5013155;28;20181;-57
2022/12/08 14:03:59;;;;;;;7.47;6.00;;;;;;;;;;5017502;28;20173;-57
2022/12/08 14:06:28;;;;;;;5.70;5.20;;;;;;;;;;5020846;28;20244;-57
2022/12/08 14:08:55;;;;;;;10.70;6.20;;;;;;;;;;5018973;28;20581;-57
2022/12/08 14:11:32;;;;;;;6.00;5.40;;;;;;;;;;5020676;28;20186;-56
2022/12/08 14:14:19;;;;;;;5.80;5.20;;;;;;;;;;5018760;28;20188;-58
2022/12/08 14:16:49;;;;;;;5.77;5.17;;;;;;;;;;5010761;28;20282;-57
2022/12/08 14:19:17;;;;;;;7.77;5.77;;;;;;;;;;5024342;28;20226;-56
2022/12/08 14:21:55;;;;;;;6.67;4.80;;;;;;;;;;5019650;28;20179;-58
2022/12/08 14:24:22;;;;;;;5.97;5.00;;;;;;;;;;5020702;28;20188;-57
2022/12/08 14:26:49;;;;;;;6.63;5.23;;;;;;;;;;5025563;28;20181;-58
2022/12/08 14:29:27;;;;;;;5.93;4.23;;;;;;;;;;5029419;28;20177;-56
2022/12/08 14:31:53;;;;;;;6.30;5.00;;;;;;;;;;5027481;28;20756;-57
2022/12/08 14:34:19;;;;;;;5.23;4.67;;;;;;;;;;5018272;28;20536;-57
2022/12/08 14:36:46;;;;;;;5.80;4.87;;;;;;;;;;5008749;28;20195;-58
2022/12/08 14:39:12;;;;;;;5.20;4.50;;;;;;;;;;4991550;28;20217;-58
2022/12/08 14:41:38;;;;;;;7.20;5.00;;;;;;;;;;4995582;28;20178;-57
2022/12/08 14:44:14;;;;;;;8.00;4.93;;;;;;;;;;5026928;28;20279;-59
2022/12/08 14:47:00;;;;;;;6.13;5.03;;;;;;;;;;5039022;28;20263;-57
2022/12/08 14:49:37;;;;;;;7.17;5.27;;;;;;;;;;5041298;28;20181;-58
2022/12/08 14:52:08;;;;;;;5.57;5.03;;;;;;;;;;5042104;28;20669;-59
2022/12/08 14:54:35;;;;;;;7.17;5.93;;;;;;;;;;5044273;28;20580;-58
2022/12/08 14:57:01;;;;;;;5.77;5.17;;;;;;;;;;5044663;28;20177;-58
2022/12/08 14:59:29;;;;;;;6.03;5.33;;;;;;;;;;5041616;28;20173;-58
2022/12/08 15:02:14;;;;;;;5.80;4.93;;;;;;;;;;5029278;28;20356;-56
2022/12/08 15:04:44;;;;;;;8.50;5.30;;;;;;;;;;5040029;28;20185;-57
2022/12/08 15:07:10;;;;;;;4.87;4.30;;;;;;;;;;5049748;28;20209;-58
2022/12/08 15:09:41;;;;;;;6.60;4.93;;;;;;;;;;5049165;28;20181;-57
2022/12/08 15:12:20;;;;;;;6.63;5.40;;;;;;;;;;5039648;28;20243;-59